sensor_id;sensor_type;location;lat;lon;timestamp;P1;durP1;ratioP1;P2;durP2;ratioP2
54191;SDS011;40101;53.002;6.488;2024-02-26T00:07:55;17.48;;;8.85;;
54191;SDS011;40101;53.002;6.488;2024-02-26T00:13:14;19.52;;;12.57;;
54191;SDS011;40101;53.002;6.488;2024-02-26T00:15:45;16.75;;;9.32;;
54191;SDS011;40101;53.002;6.488;2024-02-26T00:18:20;18.25;;;10.20;;
54191;SDS011;40101;53.002;6.488;2024-02-26T00:20:46;13.95;;;8.93;;
54191;SDS011;40101;53.002;6.488;2024-02-26T00:23:11;17.52;;;9.80;;
54191;SDS011;40101;53.002;6.488;2024-02-26T00:25:40;18.40;;;10.95;;
54191;SDS011;40101;53.002;6.488;2024-02-26T00:28:07;19.33;;;10.23;;
54191;SDS011;40101;53.002;6.488;2024-02-26T00:30:33;19.63;;;10.05;;
54191;SDS011;40101;53.002;6.488;2024-02-26T00:32:59;18.50;;;10.68;;
54191;SDS011;40101;53.002;6.488;2024-02-26T00:35:25;17.45;;;10.27;;
54191;SDS011;40101;53.002;6.488;2024-02-26T00:37:50;16.63;;;10.30;;
54191;SDS011;40101;53.002;6.488;2024-02-26T00:40:16;18.52;;;10.32;;
54191;SDS011;40101;53.002;6.488;2024-02-26T00:42:42;17.65;;;9.88;;
54191;SDS011;40101;53.002;6.488;2024-02-26T00:45:11;18.02;;;10.75;;
54191;SDS011;40101;53.002;6.488;2024-02-26T00:47:37;23.02;;;12.68;;
54191;SDS011;40101;53.002;6.488;2024-02-26T00:50:06;21.77;;;10.35;;
54191;SDS011;40101;53.002;6.488;2024-02-26T00:52:33;21.42;;;11.02;;
54191;SDS011;40101;53.002;6.488;2024-02-26T00:54:59;22.05;;;11.18;;
54191;SDS011;40101;53.002;6.488;2024-02-26T00:57:25;20.88;;;11.63;;
54191;SDS011;40101;53.002;6.488;2024-02-26T00:59:51;19.23;;;10.85;;
54191;SDS011;40101;53.002;6.488;2024-02-26T01:02:16;24.55;;;12.35;;
54191;SDS011;40101;53.002;6.488;2024-02-26T01:04:42;25.75;;;12.05;;
54191;SDS011;40101;53.002;6.488;2024-02-26T01:07:08;23.77;;;12.48;;
54191;SDS011;40101;53.002;6.488;2024-02-26T01:09:34;25.23;;;14.88;;
54191;SDS011;40101;53.002;6.488;2024-02-26T01:11:59;22.92;;;12.20;;
54191;SDS011;40101;53.002;6.488;2024-02-26T01:14:25;19.92;;;11.18;;
54191;SDS011;40101;53.002;6.488;2024-02-26T01:16:51;26.73;;;13.55;;
54191;SDS011;40101;53.002;6.488;2024-02-26T01:19:16;23.80;;;12.35;;
54191;SDS011;40101;53.002;6.488;2024-02-26T01:21:42;24.70;;;13.68;;
54191;SDS011;40101;53.002;6.488;2024-02-26T01:24:08;27.08;;;13.75;;
54191;SDS011;40101;53.002;6.488;2024-02-26T01:26:33;24.35;;;13.13;;
54191;SDS011;40101;53.002;6.488;2024-02-26T01:28:59;29.08;;;14.45;;
54191;SDS011;40101;53.002;6.488;2024-02-26T01:31:25;28.77;;;15.00;;
54191;SDS011;40101;53.002;6.488;2024-02-26T01:33:51;29.38;;;14.70;;
54191;SDS011;40101;53.002;6.488;2024-02-26T01:36:17;32.22;;;17.10;;
54191;SDS011;40101;53.002;6.488;2024-02-26T01:38:43;31.63;;;15.45;;
54191;SDS011;40101;53.002;6.488;2024-02-26T01:41:09;35.10;;;16.83;;
54191;SDS011;40101;53.002;6.488;2024-02-26T01:43:34;38.55;;;18.88;;
54191;SDS011;40101;53.002;6.488;2024-02-26T01:46:00;34.50;;;17.05;;
54191;SDS011;40101;53.002;6.488;2024-02-26T01:48:26;30.27;;;16.10;;
54191;SDS011;40101;53.002;6.488;2024-02-26T01:50:51;30.42;;;16.88;;
54191;SDS011;40101;53.002;6.488;2024-02-26T01:53:18;33.55;;;18.25;;
54191;SDS011;40101;53.002;6.488;2024-02-26T01:55:44;31.65;;;16.88;;
54191;SDS011;40101;53.002;6.488;2024-02-26T01:58:10;34.15;;;17.73;;
54191;SDS011;40101;53.002;6.488;2024-02-26T02:00:36;32.72;;;17.58;;
54191;SDS011;40101;53.002;6.488;2024-02-26T02:03:03;33.00;;;17.15;;
54191;SDS011;40101;53.002;6.488;2024-02-26T02:05:30;33.17;;;17.58;;
54191;SDS011;40101;53.002;6.488;2024-02-26T02:07:56;32.30;;;18.33;;
54191;SDS011;40101;53.002;6.488;2024-02-26T02:10:22;31.80;;;17.88;;
54191;SDS011;40101;53.002;6.488;2024-02-26T02:12:50;37.25;;;19.45;;
54191;SDS011;40101;53.002;6.488;2024-02-26T02:15:16;33.85;;;18.52;;
54191;SDS011;40101;53.002;6.488;2024-02-26T02:17:42;36.90;;;19.45;;
54191;SDS011;40101;53.002;6.488;2024-02-26T02:20:09;38.50;;;19.80;;
54191;SDS011;40101;53.002;6.488;2024-02-26T02:22:40;35.03;;;19.60;;
54191;SDS011;40101;53.002;6.488;2024-02-26T02:25:05;33.95;;;18.27;;
54191;SDS011;40101;53.002;6.488;2024-02-26T02:27:31;36.28;;;18.70;;
54191;SDS011;40101;53.002;6.488;2024-02-26T02:29:57;38.67;;;22.20;;
54191;SDS011;40101;53.002;6.488;2024-02-26T02:32:23;34.85;;;17.45;;
54191;SDS011;40101;53.002;6.488;2024-02-26T02:34:50;36.85;;;19.67;;
54191;SDS011;40101;53.002;6.488;2024-02-26T02:37:16;30.38;;;16.70;;
54191;SDS011;40101;53.002;6.488;2024-02-26T02:39:41;31.60;;;17.35;;
54191;SDS011;40101;53.002;6.488;2024-02-26T02:42:08;40.80;;;19.45;;
54191;SDS011;40101;53.002;6.488;2024-02-26T02:44:34;33.53;;;18.35;;
54191;SDS011;40101;53.002;6.488;2024-02-26T02:47:00;32.72;;;19.33;;
54191;SDS011;40101;53.002;6.488;2024-02-26T02:49:25;35.17;;;16.73;;
54191;SDS011;40101;53.002;6.488;2024-02-26T02:51:51;34.90;;;17.50;;
54191;SDS011;40101;53.002;6.488;2024-02-26T02:54:19;33.70;;;18.92;;
54191;SDS011;40101;53.002;6.488;2024-02-26T02:56:45;29.15;;;15.60;;
54191;SDS011;40101;53.002;6.488;2024-02-26T02:59:10;35.60;;;17.08;;
54191;SDS011;40101;53.002;6.488;2024-02-26T03:01:36;34.20;;;15.90;;
54191;SDS011;40101;53.002;6.488;2024-02-26T03:04:02;37.47;;;16.92;;
54191;SDS011;40101;53.002;6.488;2024-02-26T03:06:27;30.15;;;17.33;;
54191;SDS011;40101;53.002;6.488;2024-02-26T03:08:54;31.65;;;15.68;;
54191;SDS011;40101;53.002;6.488;2024-02-26T03:11:19;32.15;;;16.52;;
54191;SDS011;40101;53.002;6.488;2024-02-26T03:13:45;33.67;;;19.00;;
54191;SDS011;40101;53.002;6.488;2024-02-26T03:16:11;28.48;;;16.67;;
54191;SDS011;40101;53.002;6.488;2024-02-26T03:18:40;28.65;;;16.65;;
54191;SDS011;40101;53.002;6.488;2024-02-26T03:21:06;28.50;;;14.38;;
54191;SDS011;40101;53.002;6.488;2024-02-26T03:23:32;28.95;;;14.00;;
54191;SDS011;40101;53.002;6.488;2024-02-26T03:26:02;24.23;;;13.07;;
54191;SDS011;40101;53.002;6.488;2024-02-26T03:28:30;25.27;;;15.15;;
54191;SDS011;40101;53.002;6.488;2024-02-26T03:30:58;25.23;;;12.57;;
54191;SDS011;40101;53.002;6.488;2024-02-26T03:33:24;21.27;;;13.00;;
54191;SDS011;40101;53.002;6.488;2024-02-26T03:35:50;20.60;;;11.63;;
54191;SDS011;40101;53.002;6.488;2024-02-26T03:38:16;20.80;;;13.35;;
54191;SDS011;40101;53.002;6.488;2024-02-26T03:40:41;23.35;;;12.70;;
54191;SDS011;40101;53.002;6.488;2024-02-26T03:43:07;18.58;;;11.10;;
54191;SDS011;40101;53.002;6.488;2024-02-26T03:45:33;23.90;;;15.57;;
54191;SDS011;40101;53.002;6.488;2024-02-26T03:47:59;19.05;;;11.15;;
54191;SDS011;40101;53.002;6.488;2024-02-26T03:50:25;17.17;;;10.80;;
54191;SDS011;40101;53.002;6.488;2024-02-26T03:52:50;20.50;;;11.25;;
54191;SDS011;40101;53.002;6.488;2024-02-26T03:55:16;17.98;;;10.18;;
54191;SDS011;40101;53.002;6.488;2024-02-26T03:57:46;17.30;;;10.82;;
54191;SDS011;40101;53.002;6.488;2024-02-26T04:00:12;18.17;;;12.10;;
54191;SDS011;40101;53.002;6.488;2024-02-26T04:02:38;16.23;;;11.02;;
54191;SDS011;40101;53.002;6.488;2024-02-26T04:05:04;19.25;;;11.43;;
54191;SDS011;40101;53.002;6.488;2024-02-26T04:07:30;21.02;;;11.25;;
54191;SDS011;40101;53.002;6.488;2024-02-26T04:09:55;15.98;;;10.63;;
54191;SDS011;40101;53.002;6.488;2024-02-26T04:12:22;17.98;;;14.55;;
54191;SDS011;40101;53.002;6.488;2024-02-26T04:14:47;15.85;;;9.15;;
54191;SDS011;40101;53.002;6.488;2024-02-26T04:17:13;20.92;;;13.20;;
54191;SDS011;40101;53.002;6.488;2024-02-26T04:19:39;16.73;;;10.38;;
54191;SDS011;40101;53.002;6.488;2024-02-26T04:22:04;17.02;;;11.32;;
54191;SDS011;40101;53.002;6.488;2024-02-26T04:24:30;20.63;;;16.75;;
54191;SDS011;40101;53.002;6.488;2024-02-26T04:26:56;14.25;;;8.02;;
54191;SDS011;40101;53.002;6.488;2024-02-26T04:29:21;16.98;;;12.23;;
54191;SDS011;40101;53.002;6.488;2024-02-26T04:31:47;12.40;;;8.13;;
54191;SDS011;40101;53.002;6.488;2024-02-26T04:34:13;14.05;;;8.10;;
54191;SDS011;40101;53.002;6.488;2024-02-26T04:36:39;12.77;;;7.63;;
54191;SDS011;40101;53.002;6.488;2024-02-26T04:39:04;11.18;;;6.90;;
54191;SDS011;40101;53.002;6.488;2024-02-26T04:41:31;11.75;;;7.18;;
54191;SDS011;40101;53.002;6.488;2024-02-26T04:43:57;14.18;;;8.85;;
54191;SDS011;40101;53.002;6.488;2024-02-26T04:46:22;12.43;;;7.40;;
54191;SDS011;40101;53.002;6.488;2024-02-26T04:48:48;12.02;;;7.05;;
54191;SDS011;40101;53.002;6.488;2024-02-26T04:51:14;12.38;;;9.05;;
54191;SDS011;40101;53.002;6.488;2024-02-26T04:53:40;11.13;;;6.95;;
54191;SDS011;40101;53.002;6.488;2024-02-26T04:56:05;11.00;;;7.15;;
54191;SDS011;40101;53.002;6.488;2024-02-26T04:58:31;11.90;;;5.75;;
54191;SDS011;40101;53.002;6.488;2024-02-26T05:00:57;11.13;;;7.80;;
54191;SDS011;40101;53.002;6.488;2024-02-26T05:03:22;10.80;;;8.02;;
54191;SDS011;40101;53.002;6.488;2024-02-26T05:05:48;15.77;;;6.72;;
54191;SDS011;40101;53.002;6.488;2024-02-26T05:08:14;11.30;;;6.88;;
54191;SDS011;40101;53.002;6.488;2024-02-26T05:10:39;12.35;;;6.50;;
54191;SDS011;40101;53.002;6.488;2024-02-26T05:13:06;11.10;;;6.28;;
54191;SDS011;40101;53.002;6.488;2024-02-26T05:15:32;11.88;;;6.45;;
54191;SDS011;40101;53.002;6.488;2024-02-26T05:17:58;13.90;;;7.07;;
54191;SDS011;40101;53.002;6.488;2024-02-26T05:20:24;9.98;;;6.70;;
54191;SDS011;40101;53.002;6.488;2024-02-26T05:22:50;20.10;;;10.55;;
54191;SDS011;40101;53.002;6.488;2024-02-26T05:25:15;12.27;;;8.60;;
54191;SDS011;40101;53.002;6.488;2024-02-26T05:27:42;13.52;;;7.03;;
54191;SDS011;40101;53.002;6.488;2024-02-26T05:30:09;11.05;;;6.47;;
54191;SDS011;40101;53.002;6.488;2024-02-26T05:32:35;13.00;;;6.57;;
54191;SDS011;40101;53.002;6.488;2024-02-26T05:35:01;9.80;;;6.05;;
54191;SDS011;40101;53.002;6.488;2024-02-26T05:37:28;17.25;;;6.80;;
54191;SDS011;40101;53.002;6.488;2024-02-26T05:39:55;13.90;;;8.45;;
54191;SDS011;40101;53.002;6.488;2024-02-26T05:42:20;12.73;;;7.20;;
54191;SDS011;40101;53.002;6.488;2024-02-26T05:44:46;13.63;;;8.60;;
54191;SDS011;40101;53.002;6.488;2024-02-26T05:47:12;15.10;;;10.90;;
54191;SDS011;40101;53.002;6.488;2024-02-26T05:49:38;22.38;;;19.95;;
54191;SDS011;40101;53.002;6.488;2024-02-26T05:52:04;12.02;;;7.85;;
54191;SDS011;40101;53.002;6.488;2024-02-26T05:54:30;9.93;;;5.82;;
54191;SDS011;40101;53.002;6.488;2024-02-26T05:56:56;7.95;;;5.18;;
54191;SDS011;40101;53.002;6.488;2024-02-26T05:59:22;17.92;;;9.32;;
54191;SDS011;40101;53.002;6.488;2024-02-26T06:01:48;11.60;;;5.35;;
54191;SDS011;40101;53.002;6.488;2024-02-26T06:04:13;10.45;;;5.85;;
54191;SDS011;40101;53.002;6.488;2024-02-26T06:06:39;10.38;;;5.55;;
54191;SDS011;40101;53.002;6.488;2024-02-26T06:09:05;8.70;;;5.30;;
54191;SDS011;40101;53.002;6.488;2024-02-26T06:11:31;14.82;;;10.50;;
54191;SDS011;40101;53.002;6.488;2024-02-26T06:13:56;8.85;;;7.75;;
54191;SDS011;40101;53.002;6.488;2024-02-26T06:16:22;14.80;;;7.72;;
54191;SDS011;40101;53.002;6.488;2024-02-26T06:18:48;7.22;;;5.13;;
54191;SDS011;40101;53.002;6.488;2024-02-26T06:21:13;8.02;;;5.60;;
54191;SDS011;40101;53.002;6.488;2024-02-26T06:23:39;8.23;;;7.25;;
54191;SDS011;40101;53.002;6.488;2024-02-26T06:26:05;9.63;;;8.73;;
54191;SDS011;40101;53.002;6.488;2024-02-26T06:28:31;6.50;;;4.90;;
54191;SDS011;40101;53.002;6.488;2024-02-26T06:30:58;9.20;;;4.15;;
54191;SDS011;40101;53.002;6.488;2024-02-26T06:33:24;15.00;;;8.45;;
54191;SDS011;40101;53.002;6.488;2024-02-26T06:35:50;8.13;;;3.78;;
54191;SDS011;40101;53.002;6.488;2024-02-26T06:38:16;7.25;;;4.93;;
54191;SDS011;40101;53.002;6.488;2024-02-26T06:40:42;10.05;;;6.82;;
54191;SDS011;40101;53.002;6.488;2024-02-26T06:43:09;5.65;;;4.30;;
54191;SDS011;40101;53.002;6.488;2024-02-26T06:45:35;7.03;;;4.03;;
54191;SDS011;40101;53.002;6.488;2024-02-26T06:48:00;9.02;;;8.13;;
54191;SDS011;40101;53.002;6.488;2024-02-26T06:50:27;9.35;;;5.95;;
54191;SDS011;40101;53.002;6.488;2024-02-26T06:52:53;11.88;;;9.70;;
54191;SDS011;40101;53.002;6.488;2024-02-26T06:55:19;7.03;;;4.22;;
54191;SDS011;40101;53.002;6.488;2024-02-26T06:57:44;8.15;;;5.88;;
54191;SDS011;40101;53.002;6.488;2024-02-26T07:00:10;7.05;;;5.05;;
54191;SDS011;40101;53.002;6.488;2024-02-26T07:02:39;5.40;;;3.78;;
54191;SDS011;40101;53.002;6.488;2024-02-26T07:05:06;5.30;;;3.63;;
54191;SDS011;40101;53.002;6.488;2024-02-26T07:07:32;6.80;;;4.30;;
54191;SDS011;40101;53.002;6.488;2024-02-26T07:09:58;5.45;;;4.28;;
54191;SDS011;40101;53.002;6.488;2024-02-26T07:12:23;5.97;;;4.22;;
54191;SDS011;40101;53.002;6.488;2024-02-26T07:14:49;31.63;;;28.55;;
54191;SDS011;40101;53.002;6.488;2024-02-26T07:17:15;9.18;;;8.27;;
54191;SDS011;40101;53.002;6.488;2024-02-26T07:19:41;6.78;;;4.57;;
54191;SDS011;40101;53.002;6.488;2024-02-26T07:22:07;6.40;;;4.35;;
54191;SDS011;40101;53.002;6.488;2024-02-26T07:24:33;7.55;;;4.15;;
54191;SDS011;40101;53.002;6.488;2024-02-26T07:26:59;7.15;;;3.63;;
54191;SDS011;40101;53.002;6.488;2024-02-26T07:29:25;8.05;;;6.32;;
54191;SDS011;40101;53.002;6.488;2024-02-26T07:31:50;5.88;;;4.40;;
54191;SDS011;40101;53.002;6.488;2024-02-26T07:34:16;6.80;;;5.10;;
54191;SDS011;40101;53.002;6.488;2024-02-26T07:36:42;6.50;;;4.18;;
54191;SDS011;40101;53.002;6.488;2024-02-26T07:39:07;6.85;;;5.03;;
54191;SDS011;40101;53.002;6.488;2024-02-26T07:41:33;6.75;;;4.60;;
54191;SDS011;40101;53.002;6.488;2024-02-26T07:43:59;6.00;;;4.88;;
54191;SDS011;40101;53.002;6.488;2024-02-26T07:46:25;8.15;;;5.18;;
54191;SDS011;40101;53.002;6.488;2024-02-26T07:48:50;8.15;;;4.70;;
54191;SDS011;40101;53.002;6.488;2024-02-26T07:51:16;6.53;;;4.55;;
54191;SDS011;40101;53.002;6.488;2024-02-26T07:53:42;10.07;;;4.57;;
54191;SDS011;40101;53.002;6.488;2024-02-26T07:56:08;7.30;;;4.60;;
54191;SDS011;40101;53.002;6.488;2024-02-26T07:58:34;9.60;;;6.63;;
54191;SDS011;40101;53.002;6.488;2024-02-26T08:01:00;7.65;;;4.88;;
54191;SDS011;40101;53.002;6.488;2024-02-26T08:03:26;6.70;;;4.53;;
54191;SDS011;40101;53.002;6.488;2024-02-26T08:05:52;6.70;;;4.68;;
54191;SDS011;40101;53.002;6.488;2024-02-26T08:08:17;8.00;;;5.00;;
54191;SDS011;40101;53.002;6.488;2024-02-26T08:10:43;8.45;;;4.45;;
54191;SDS011;40101;53.002;6.488;2024-02-26T08:13:09;8.85;;;5.22;;
54191;SDS011;40101;53.002;6.488;2024-02-26T08:15:35;8.70;;;5.00;;
54191;SDS011;40101;53.002;6.488;2024-02-26T08:18:02;7.32;;;4.57;;
54191;SDS011;40101;53.002;6.488;2024-02-26T08:20:28;8.18;;;7.22;;
54191;SDS011;40101;53.002;6.488;2024-02-26T08:22:55;6.80;;;5.55;;
54191;SDS011;40101;53.002;6.488;2024-02-26T08:25:21;5.50;;;4.43;;
54191;SDS011;40101;53.002;6.488;2024-02-26T08:27:47;6.65;;;4.43;;
54191;SDS011;40101;53.002;6.488;2024-02-26T08:30:13;9.57;;;8.05;;
54191;SDS011;40101;53.002;6.488;2024-02-26T08:32:42;6.47;;;5.20;;
54191;SDS011;40101;53.002;6.488;2024-02-26T08:35:08;8.73;;;6.35;;
54191;SDS011;40101;53.002;6.488;2024-02-26T08:37:34;6.40;;;4.10;;
54191;SDS011;40101;53.002;6.488;2024-02-26T08:39:59;7.97;;;4.63;;
54191;SDS011;40101;53.002;6.488;2024-02-26T08:42:25;10.77;;;5.30;;
54191;SDS011;40101;53.002;6.488;2024-02-26T08:44:51;6.07;;;4.72;;
54191;SDS011;40101;53.002;6.488;2024-02-26T08:47:16;8.85;;;5.78;;
54191;SDS011;40101;53.002;6.488;2024-02-26T08:49:43;8.20;;;4.35;;
54191;SDS011;40101;53.002;6.488;2024-02-26T08:52:10;7.90;;;4.55;;
54191;SDS011;40101;53.002;6.488;2024-02-26T08:54:35;10.90;;;9.05;;
54191;SDS011;40101;53.002;6.488;2024-02-26T08:57:01;6.60;;;4.32;;
54191;SDS011;40101;53.002;6.488;2024-02-26T08:59:27;10.32;;;7.80;;
54191;SDS011;40101;53.002;6.488;2024-02-26T09:01:53;43.55;;;27.17;;
54191;SDS011;40101;53.002;6.488;2024-02-26T09:04:19;4.47;;;3.83;;
54191;SDS011;40101;53.002;6.488;2024-02-26T09:06:45;8.40;;;4.97;;
54191;SDS011;40101;53.002;6.488;2024-02-26T09:09:11;13.07;;;11.85;;
54191;SDS011;40101;53.002;6.488;2024-02-26T09:11:36;17.73;;;14.18;;
54191;SDS011;40101;53.002;6.488;2024-02-26T09:14:02;12.30;;;9.68;;
54191;SDS011;40101;53.002;6.488;2024-02-26T09:16:29;10.00;;;6.20;;
54191;SDS011;40101;53.002;6.488;2024-02-26T09:18:55;18.23;;;16.35;;
54191;SDS011;40101;53.002;6.488;2024-02-26T09:21:21;17.15;;;12.02;;
54191;SDS011;40101;53.002;6.488;2024-02-26T09:23:51;17.05;;;11.73;;
54191;SDS011;40101;53.002;6.488;2024-02-26T09:26:18;16.05;;;13.43;;
54191;SDS011;40101;53.002;6.488;2024-02-26T09:28:44;8.45;;;7.55;;
54191;SDS011;40101;53.002;6.488;2024-02-26T09:31:10;13.77;;;5.60;;
54191;SDS011;40101;53.002;6.488;2024-02-26T09:33:35;22.30;;;19.73;;
54191;SDS011;40101;53.002;6.488;2024-02-26T09:36:01;11.45;;;7.63;;
54191;SDS011;40101;53.002;6.488;2024-02-26T09:38:28;13.25;;;11.20;;
54191;SDS011;40101;53.002;6.488;2024-02-26T09:40:55;12.18;;;8.88;;
54191;SDS011;40101;53.002;6.488;2024-02-26T09:43:22;6.97;;;6.28;;
54191;SDS011;40101;53.002;6.488;2024-02-26T09:45:52;11.90;;;8.10;;
54191;SDS011;40101;53.002;6.488;2024-02-26T09:48:18;9.43;;;8.50;;
54191;SDS011;40101;53.002;6.488;2024-02-26T09:50:45;9.77;;;8.85;;
54191;SDS011;40101;53.002;6.488;2024-02-26T09:53:12;3.78;;;3.35;;
54191;SDS011;40101;53.002;6.488;2024-02-26T09:55:38;28.92;;;19.00;;
54191;SDS011;40101;53.002;6.488;2024-02-26T09:58:05;9.13;;;5.57;;
54191;SDS011;40101;53.002;6.488;2024-02-26T10:00:35;18.60;;;15.80;;
54191;SDS011;40101;53.002;6.488;2024-02-26T10:03:06;32.58;;;26.02;;
54191;SDS011;40101;53.002;6.488;2024-02-26T10:05:38;7.83;;;4.50;;
54191;SDS011;40101;53.002;6.488;2024-02-26T10:08:05;15.70;;;11.25;;
54191;SDS011;40101;53.002;6.488;2024-02-26T10:10:33;28.63;;;21.95;;
54191;SDS011;40101;53.002;6.488;2024-02-26T10:13:02;3.72;;;3.08;;
54191;SDS011;40101;53.002;6.488;2024-02-26T10:15:35;5.43;;;4.95;;
54191;SDS011;40101;53.002;6.488;2024-02-26T10:18:03;12.30;;;10.23;;
54191;SDS011;40101;53.002;6.488;2024-02-26T10:20:30;7.18;;;5.15;;
54191;SDS011;40101;53.002;6.488;2024-02-26T10:22:57;23.52;;;20.60;;
54191;SDS011;40101;53.002;6.488;2024-02-26T10:25:22;3.28;;;2.97;;
54191;SDS011;40101;53.002;6.488;2024-02-26T10:27:48;7.97;;;7.18;;
54191;SDS011;40101;53.002;6.488;2024-02-26T10:32:44;6.40;;;4.15;;
54191;SDS011;40101;53.002;6.488;2024-02-26T10:35:11;24.27;;;14.27;;
54191;SDS011;40101;53.002;6.488;2024-02-26T10:37:37;6.53;;;4.13;;
54191;SDS011;40101;53.002;6.488;2024-02-26T10:40:05;11.38;;;9.15;;
54191;SDS011;40101;53.002;6.488;2024-02-26T10:42:31;11.52;;;8.15;;
54191;SDS011;40101;53.002;6.488;2024-02-26T10:44:57;5.05;;;3.00;;
54191;SDS011;40101;53.002;6.488;2024-02-26T10:47:23;15.45;;;13.15;;
54191;SDS011;40101;53.002;6.488;2024-02-26T10:49:49;22.48;;;20.02;;
54191;SDS011;40101;53.002;6.488;2024-02-26T10:52:16;25.73;;;21.35;;
54191;SDS011;40101;53.002;6.488;2024-02-26T10:54:44;3.80;;;3.22;;
54191;SDS011;40101;53.002;6.488;2024-02-26T10:57:12;8.05;;;6.40;;
54191;SDS011;40101;53.002;6.488;2024-02-26T10:59:40;7.43;;;4.95;;
54191;SDS011;40101;53.002;6.488;2024-02-26T11:02:08;3.85;;;2.95;;
54191;SDS011;40101;53.002;6.488;2024-02-26T11:04:35;3.50;;;3.20;;
54191;SDS011;40101;53.002;6.488;2024-02-26T11:07:03;7.47;;;5.47;;
54191;SDS011;40101;53.002;6.488;2024-02-26T11:09:31;4.88;;;3.45;;
54191;SDS011;40101;53.002;6.488;2024-02-26T11:11:57;4.47;;;4.07;;
54191;SDS011;40101;53.002;6.488;2024-02-26T11:14:24;3.72;;;2.47;;
54191;SDS011;40101;53.002;6.488;2024-02-26T11:16:51;6.32;;;3.53;;
54191;SDS011;40101;53.002;6.488;2024-02-26T11:19:17;6.15;;;5.47;;
54191;SDS011;40101;53.002;6.488;2024-02-26T11:21:43;4.15;;;3.58;;
54191;SDS011;40101;53.002;6.488;2024-02-26T11:24:11;6.20;;;5.60;;
54191;SDS011;40101;53.002;6.488;2024-02-26T11:26:40;8.65;;;3.88;;
54191;SDS011;40101;53.002;6.488;2024-02-26T11:29:10;6.80;;;4.47;;
54191;SDS011;40101;53.002;6.488;2024-02-26T11:31:38;3.72;;;2.92;;
54191;SDS011;40101;53.002;6.488;2024-02-26T11:34:06;4.50;;;2.95;;
54191;SDS011;40101;53.002;6.488;2024-02-26T11:36:33;3.90;;;2.70;;
54191;SDS011;40101;53.002;6.488;2024-02-26T11:39:00;3.10;;;2.15;;
54191;SDS011;40101;53.002;6.488;2024-02-26T11:41:26;3.90;;;3.15;;
54191;SDS011;40101;53.002;6.488;2024-02-26T11:43:53;4.07;;;3.38;;
54191;SDS011;40101;53.002;6.488;2024-02-26T11:51:56;4.00;;;2.87;;
54191;SDS011;40101;53.002;6.488;2024-02-26T11:54:46;3.50;;;2.13;;
54191;SDS011;40101;53.002;6.488;2024-02-26T11:57:25;4.75;;;2.47;;
54191;SDS011;40101;53.002;6.488;2024-02-26T11:59:55;3.03;;;2.55;;
54191;SDS011;40101;53.002;6.488;2024-02-26T12:05:12;4.18;;;3.55;;
54191;SDS011;40101;53.002;6.488;2024-02-26T12:08:00;10.00;;;9.00;;
54191;SDS011;40101;53.002;6.488;2024-02-26T12:10:32;37.65;;;19.00;;
54191;SDS011;40101;53.002;6.488;2024-02-26T12:13:03;3.45;;;3.15;;
54191;SDS011;40101;53.002;6.488;2024-02-26T12:15:36;22.55;;;8.68;;
54191;SDS011;40101;53.002;6.488;2024-02-26T12:18:04;2.20;;;1.92;;
54191;SDS011;40101;53.002;6.488;2024-02-26T12:20:31;4.10;;;2.25;;
54191;SDS011;40101;53.002;6.488;2024-02-26T12:22:57;2.88;;;2.15;;
54191;SDS011;40101;53.002;6.488;2024-02-26T12:25:26;3.47;;;2.10;;
54191;SDS011;40101;53.002;6.488;2024-02-26T12:27:54;2.40;;;2.00;;
54191;SDS011;40101;53.002;6.488;2024-02-26T12:30:20;3.00;;;2.10;;
54191;SDS011;40101;53.002;6.488;2024-02-26T12:32:50;7.53;;;5.47;;
54191;SDS011;40101;53.002;6.488;2024-02-26T12:35:16;5.97;;;3.08;;
54191;SDS011;40101;53.002;6.488;2024-02-26T12:37:45;5.93;;;4.97;;
54191;SDS011;40101;53.002;6.488;2024-02-26T12:40:11;4.72;;;2.65;;
54191;SDS011;40101;53.002;6.488;2024-02-26T12:42:38;3.47;;;2.83;;
54191;SDS011;40101;53.002;6.488;2024-02-26T12:45:08;7.05;;;4.80;;
54191;SDS011;40101;53.002;6.488;2024-02-26T12:47:35;4.05;;;2.85;;
54191;SDS011;40101;53.002;6.488;2024-02-26T12:50:02;4.43;;;3.38;;
54191;SDS011;40101;53.002;6.488;2024-02-26T12:52:29;5.20;;;2.72;;
54191;SDS011;40101;53.002;6.488;2024-02-26T12:54:56;4.88;;;3.28;;
54191;SDS011;40101;53.002;6.488;2024-02-26T12:57:22;6.25;;;3.95;;
54191;SDS011;40101;53.002;6.488;2024-02-26T12:59:49;7.38;;;4.60;;
54191;SDS011;40101;53.002;6.488;2024-02-26T13:02:14;6.90;;;4.30;;
54191;SDS011;40101;53.002;6.488;2024-02-26T13:04:41;5.72;;;3.33;;
54191;SDS011;40101;53.002;6.488;2024-02-26T13:07:07;8.60;;;3.42;;
54191;SDS011;40101;53.002;6.488;2024-02-26T13:09:33;5.40;;;4.00;;
54191;SDS011;40101;53.002;6.488;2024-02-26T13:12:03;5.15;;;4.05;;
54191;SDS011;40101;53.002;6.488;2024-02-26T13:14:29;4.35;;;3.40;;
54191;SDS011;40101;53.002;6.488;2024-02-26T13:16:57;5.88;;;4.28;;
54191;SDS011;40101;53.002;6.488;2024-02-26T13:19:23;5.90;;;4.53;;
54191;SDS011;40101;53.002;6.488;2024-02-26T13:21:49;6.07;;;4.32;;
54191;SDS011;40101;53.002;6.488;2024-02-26T13:24:15;6.18;;;4.30;;
54191;SDS011;40101;53.002;6.488;2024-02-26T13:26:41;10.00;;;6.25;;
54191;SDS011;40101;53.002;6.488;2024-02-26T13:29:07;8.30;;;4.25;;
54191;SDS011;40101;53.002;6.488;2024-02-26T13:31:39;7.00;;;4.55;;
54191;SDS011;40101;53.002;6.488;2024-02-26T13:34:05;6.68;;;4.28;;
54191;SDS011;40101;53.002;6.488;2024-02-26T13:36:31;13.90;;;7.32;;
54191;SDS011;40101;53.002;6.488;2024-02-26T13:38:57;15.07;;;11.57;;
54191;SDS011;40101;53.002;6.488;2024-02-26T13:41:22;7.95;;;5.07;;
54191;SDS011;40101;53.002;6.488;2024-02-26T13:43:48;10.80;;;8.30;;
54191;SDS011;40101;53.002;6.488;2024-02-26T13:46:15;8.50;;;5.40;;
54191;SDS011;40101;53.002;6.488;2024-02-26T13:48:42;9.43;;;5.13;;
54191;SDS011;40101;53.002;6.488;2024-02-26T13:51:07;12.35;;;6.10;;
54191;SDS011;40101;53.002;6.488;2024-02-26T13:53:33;7.10;;;4.32;;
54191;SDS011;40101;53.002;6.488;2024-02-26T13:55:59;7.63;;;4.65;;
54191;SDS011;40101;53.002;6.488;2024-02-26T13:58:26;20.77;;;15.45;;
54191;SDS011;40101;53.002;6.488;2024-02-26T14:00:54;10.02;;;6.55;;
54191;SDS011;40101;53.002;6.488;2024-02-26T14:03:20;9.05;;;5.78;;
54191;SDS011;40101;53.002;6.488;2024-02-26T14:05:46;23.50;;;17.92;;
54191;SDS011;40101;53.002;6.488;2024-02-26T14:08:12;8.23;;;5.25;;
54191;SDS011;40101;53.002;6.488;2024-02-26T14:10:38;8.18;;;5.18;;
54191;SDS011;40101;53.002;6.488;2024-02-26T14:13:07;11.43;;;6.03;;
54191;SDS011;40101;53.002;6.488;2024-02-26T14:15:33;12.77;;;8.48;;
54191;SDS011;40101;53.002;6.488;2024-02-26T14:18:00;11.70;;;7.28;;
54191;SDS011;40101;53.002;6.488;2024-02-26T14:20:28;11.57;;;6.65;;
54191;SDS011;40101;53.002;6.488;2024-02-26T14:22:53;8.88;;;5.65;;
54191;SDS011;40101;53.002;6.488;2024-02-26T14:25:19;10.95;;;5.28;;
54191;SDS011;40101;53.002;6.488;2024-02-26T14:27:49;11.48;;;7.03;;
54191;SDS011;40101;53.002;6.488;2024-02-26T14:30:15;23.05;;;14.80;;
54191;SDS011;40101;53.002;6.488;2024-02-26T14:32:40;9.57;;;5.47;;
54191;SDS011;40101;53.002;6.488;2024-02-26T14:35:06;8.80;;;5.80;;
54191;SDS011;40101;53.002;6.488;2024-02-26T14:37:34;8.73;;;5.50;;
54191;SDS011;40101;53.002;6.488;2024-02-26T14:40:00;9.27;;;6.03;;
54191;SDS011;40101;53.002;6.488;2024-02-26T14:42:27;12.05;;;6.85;;
54191;SDS011;40101;53.002;6.488;2024-02-26T14:44:54;10.13;;;6.40;;
54191;SDS011;40101;53.002;6.488;2024-02-26T14:47:19;8.73;;;5.88;;
54191;SDS011;40101;53.002;6.488;2024-02-26T14:49:45;13.77;;;10.75;;
54191;SDS011;40101;53.002;6.488;2024-02-26T14:52:13;12.65;;;7.10;;